Time;durP1;ratioP1;P1;durP2;ratioP2;P2;SDS_P1;SDS_P2;PMS_P1;PMS_P2;Temp;Humidity;BMP_temperature;BMP_pressure;BME280_temperature;BME280_humidity;BME280_pressure;Samples;Min_cycle;Max_cycle;Signal;HPM_P1;HPM_P2
2022/01/16 00:04:34;;;;;;;2.97;1.80;;;-0.70;99.90;;;;;;5038475;28;20423;-60
2022/01/16 00:07:03;;;;;;;1.30;1.20;;;-0.70;99.90;;;;;;5048300;28;20984;-60
2022/01/16 00:09:31;;;;;;;1.70;1.50;;;-0.70;99.90;;;;;;5043560;28;21003;-61
2022/01/16 00:12:00;;;;;;;0.80;0.70;;;-0.60;99.90;;;;;;5041451;28;20462;-61
2022/01/16 00:14:30;;;;;;;2.10;1.00;;;-0.60;99.90;;;;;;5038686;28;20731;-59
2022/01/16 00:16:57;;;;;;;5.23;2.07;;;-0.60;99.90;;;;;;5041824;28;20473;-60
2022/01/16 00:19:25;;;;;;;1.67;1.57;;;-0.60;99.90;;;;;;5041060;28;20510;-60
2022/01/16 00:21:53;;;;;;;3.90;2.20;;;-0.50;99.90;;;;;;5040839;28;20487;-60
2022/01/16 00:24:20;;;;;;;4.13;2.57;;;-0.50;99.90;;;;;;5041810;28;20454;-60
2022/01/16 00:26:47;;;;;;;2.23;1.53;;;-0.60;99.90;;;;;;5045609;28;20469;-60
2022/01/16 00:29:14;;;;;;;6.97;2.80;;;-0.50;99.90;;;;;;5037863;28;20496;-61
2022/01/16 00:34:27;;;;;;;2.27;2.07;;;-0.70;99.90;;;;;;5022497;28;20975;-55
2022/01/16 00:36:54;;;;;;;3.53;2.13;;;-0.80;99.90;;;;;;5030804;28;20476;-57
2022/01/16 00:39:21;;;;;;;2.27;2.00;;;-0.80;99.90;;;;;;5025227;28;20581;-55
2022/01/16 00:41:48;;;;;;;2.40;2.00;;;-0.80;99.90;;;;;;5027596;28;21017;-57
2022/01/16 00:44:15;;;;;;;4.60;2.67;;;-0.80;99.90;;;;;;5031722;28;20474;-57
2022/01/16 00:46:42;;;;;;;2.77;2.17;;;-0.90;99.90;;;;;;5027031;28;20479;-57
2022/01/16 00:49:10;;;;;;;3.90;2.13;;;-0.90;99.90;;;;;;5025562;28;20523;-57
2022/01/16 00:51:38;;;;;;;3.80;1.93;;;-0.90;99.90;;;;;;5029586;28;20879;-57
2022/01/16 00:54:05;;;;;;;2.50;2.30;;;-1.00;99.90;;;;;;5028068;28;20540;-58
2022/01/16 00:56:32;;;;;;;2.60;2.37;;;-0.90;99.90;;;;;;5024776;28;20444;-57
2022/01/16 00:58:59;;;;;;;2.90;2.03;;;-1.00;99.90;;;;;;5027627;28;20578;-56
2022/01/16 01:01:26;;;;;;;5.17;2.50;;;-1.10;99.90;;;;;;5030444;28;20994;-56
2022/01/16 01:03:53;;;;;;;3.17;2.27;;;-1.10;99.90;;;;;;5025356;28;20549;-57
2022/01/16 01:06:20;;;;;;;4.60;2.60;;;-1.10;99.90;;;;;;5026478;28;20725;-57
2022/01/16 01:08:48;;;;;;;2.73;1.83;;;-1.20;99.90;;;;;;5026684;28;20787;-56
2022/01/16 01:11:17;;;;;;;2.33;1.80;;;-1.10;99.90;;;;;;5027061;28;20497;-57
2022/01/16 01:13:57;;;;;;;2.43;1.63;;;-1.10;99.90;;;;;;5026478;28;20815;-56
2022/01/16 01:16:27;;;;;;;3.50;2.13;;;-1.10;99.90;;;;;;5029858;28;20947;-57
2022/01/16 01:18:54;;;;;;;4.13;1.97;;;-1.10;99.90;;;;;;5028685;28;21017;-58
2022/01/16 01:21:28;;;;;;;4.40;2.30;;;-1.10;99.90;;;;;;5024161;28;20507;-57
2022/01/16 01:23:57;;;;;;;3.57;2.40;;;-1.10;99.90;;;;;;5025049;28;20451;-58
2022/01/16 01:26:29;;;;;;;3.60;2.83;;;-1.20;99.90;;;;;;5029092;28;20451;-56
2022/01/16 01:28:56;;;;;;;3.63;2.70;;;-1.20;99.90;;;;;;5022538;28;20447;-57
2022/01/16 01:31:23;;;;;;;3.40;2.60;;;-1.30;99.90;;;;;;5023080;28;20899;-59
2022/01/16 01:33:50;;;;;;;4.43;2.40;;;-1.20;99.90;;;;;;5023881;28;20513;-58
2022/01/16 01:36:17;;;;;;;1.77;1.60;;;-1.30;99.90;;;;;;5017410;28;20800;-58
2022/01/16 01:38:44;;;;;;;2.67;1.47;;;-1.20;99.90;;;;;;5024678;28;20545;-58
2022/01/16 01:41:13;;;;;;;3.87;3.10;;;-1.30;99.90;;;;;;5024047;28;20499;-59
2022/01/16 01:52:07;;;;;;;1.20;1.10;;;-1.10;99.90;;;;;;4983032;28;21020;-57
2022/01/16 01:54:34;;;;;;;1.30;1.20;;;-1.20;99.90;;;;;;4985387;28;20524;-58
2022/01/16 01:57:03;;;;;;;1.83;1.60;;;-1.20;99.90;;;;;;5001761;28;20466;-58
2022/01/16 01:59:30;;;;;;;1.40;1.10;;;-1.20;99.90;;;;;;5023125;28;21083;-57
2022/01/16 02:01:57;;;;;;;1.50;1.40;;;-1.20;99.90;;;;;;5031431;28;20554;-57
2022/01/16 02:04:24;;;;;;;1.83;1.00;;;-1.10;99.90;;;;;;5035859;28;20481;-58
2022/01/16 02:06:51;;;;;;;1.20;1.07;;;-1.10;99.90;;;;;;5029492;28;20519;-57
2022/01/16 02:09:18;;;;;;;1.17;1.07;;;-1.10;99.90;;;;;;5035327;28;21181;-57
2022/01/16 02:11:47;;;;;;;1.30;1.00;;;-1.10;99.90;;;;;;5029600;28;20501;-56
2022/01/16 02:14:26;;;;;;;1.33;1.20;;;-1.10;99.90;;;;;;5028065;28;20488;-58
2022/01/16 02:28:09;;;;;;;3.70;1.60;;;-1.20;99.90;;;;;;5031758;28;20501;-57
2022/01/16 02:34:29;;;;;;;1.80;1.67;;;-1.40;99.90;;;;;;5034192;28;20451;-59
2022/01/16 02:36:22;;;;;;;1.40;1.10;;;-1.30;99.90;;;;;;5030625;28;20793;-57
2022/01/16 02:38:50;;;;;;;2.20;1.50;;;-1.20;99.90;;;;;;5038034;28;21282;-58
2022/01/16 02:41:17;;;;;;;1.57;1.27;;;-1.20;99.90;;;;;;5027478;28;20474;-58
2022/01/16 02:43:49;;;;;;;1.33;1.10;;;-1.20;99.90;;;;;;5032720;28;20482;-58
2022/01/16 02:49:00;;;;;;;2.10;1.73;;;-1.20;99.90;;;;;;5030419;28;20964;-55
2022/01/16 02:51:28;;;;;;;1.73;1.63;;;-1.10;99.90;;;;;;5034737;28;20508;-57
2022/01/16 02:53:57;;;;;;;1.83;1.70;;;-1.10;99.90;;;;;;5032123;28;20982;-58
2022/01/16 02:56:24;;;;;;;2.40;2.10;;;-1.00;99.90;;;;;;5030771;28;20529;-57
2022/01/16 02:58:52;;;;;;;1.93;1.80;;;-1.00;99.90;;;;;;5029423;28;20486;-54
2022/01/16 03:01:19;;;;;;;1.30;1.20;;;-1.20;99.90;;;;;;5040358;28;20488;-55
2022/01/16 03:03:46;;;;;;;1.23;1.13;;;-1.20;99.90;;;;;;5038100;28;20473;-55
2022/01/16 03:06:14;;;;;;;1.47;1.13;;;-1.20;99.90;;;;;;5030310;28;20484;-56
2022/01/16 03:08:41;;;;;;;1.27;1.00;;;-1.20;99.90;;;;;;5033580;28;20486;-54
2022/01/16 03:11:21;;;;;;;1.00;1.00;;;-1.20;99.90;;;;;;5032755;28;20498;-54
2022/01/16 03:13:49;;;;;;;1.13;0.83;;;-1.20;99.90;;;;;;5026379;28;20451;-55
2022/01/16 03:16:16;;;;;;;2.60;1.03;;;-1.30;99.90;;;;;;5029555;28;20537;-55
2022/01/16 03:24:13;;;;;;;1.00;1.00;;;-1.40;99.90;;;;;;5030805;28;20439;-55
2022/01/16 03:26:42;;;;;;;1.30;1.13;;;-1.40;99.90;;;;;;5029240;28;20898;-54
2022/01/16 03:29:09;;;;;;;1.37;1.00;;;-1.40;99.90;;;;;;5032428;28;20497;-54
2022/01/16 03:31:36;;;;;;;1.40;1.13;;;-1.70;99.90;;;;;;5036199;28;20995;-55
2022/01/16 03:34:04;;;;;;;1.43;1.30;;;-1.60;99.90;;;;;;5029259;28;20546;-54
2022/01/16 03:36:31;;;;;;;2.53;1.63;;;-1.60;99.90;;;;;;5026738;28;20804;-54
2022/01/16 03:38:58;;;;;;;1.03;0.93;;;-1.60;99.90;;;;;;5038612;28;20867;-56
2022/01/16 03:41:27;;;;;;;1.37;1.27;;;-1.60;99.90;;;;;;5024550;28;20582;-56
2022/01/16 03:43:58;;;;;;;0.80;0.80;;;-1.60;99.90;;;;;;5025264;28;20486;-53
2022/01/16 03:46:29;;;;;;;1.33;1.23;;;-1.60;99.90;;;;;;5035564;28;20438;-56
2022/01/16 03:48:56;;;;;;;1.20;1.10;;;-1.50;99.90;;;;;;5027424;28;20461;-56
2022/01/16 03:51:23;;;;;;;1.57;1.47;;;-1.60;99.90;;;;;;5026028;28;20561;-55
2022/01/16 03:53:50;;;;;;;1.70;1.60;;;-1.70;99.90;;;;;;5039798;28;20482;-56
2022/01/16 03:56:17;;;;;;;1.50;1.40;;;-1.60;99.90;;;;;;5033217;28;20473;-56
2022/01/16 03:58:44;;;;;;;1.47;1.27;;;-1.50;99.90;;;;;;5028847;28;20477;-54
2022/01/16 04:01:12;;;;;;;1.00;1.00;;;-1.40;99.90;;;;;;5031033;28;20518;-56
2022/01/16 04:03:40;;;;;;;2.13;1.20;;;-1.40;99.90;;;;;;5034868;28;20441;-56
2022/01/16 04:06:07;;;;;;;2.30;1.10;;;-1.50;99.90;;;;;;5027071;28;20481;-55
2022/01/16 04:08:34;;;;;;;1.20;1.10;;;-1.40;99.90;;;;;;5034601;28;20529;-55
2022/01/16 04:11:01;;;;;;;3.60;1.20;;;-1.40;99.90;;;;;;5038417;28;20497;-56
2022/01/16 04:13:30;;;;;;;1.40;1.10;;;-1.40;99.90;;;;;;5038109;28;20450;-55
2022/01/16 04:15:57;;;;;;;1.30;1.20;;;-1.40;99.90;;;;;;5032268;28;20464;-54
2022/01/16 04:18:26;;;;;;;1.50;1.40;;;-1.30;99.90;;;;;;5030034;28;20477;-55
2022/01/16 04:20:52;;;;;;;1.07;0.97;;;-1.40;99.90;;;;;;5041369;28;20509;-54
2022/01/16 04:23:19;;;;;;;1.10;0.73;;;-1.50;99.90;;;;;;5029649;28;20540;-54
2022/01/16 04:25:46;;;;;;;1.00;0.90;;;-1.40;99.90;;;;;;5034990;28;20492;-56
2022/01/16 04:28:13;;;;;;;0.80;0.80;;;-1.40;99.90;;;;;;5034925;28;20878;-55
2022/01/16 04:30:40;;;;;;;1.27;1.17;;;-1.40;99.90;;;;;;5039075;28;20752;-55
2022/01/16 04:33:07;;;;;;;2.80;1.40;;;-1.50;99.90;;;;;;5029086;28;20494;-56
2022/01/16 04:35:35;;;;;;;2.30;1.47;;;-1.40;99.90;;;;;;5037187;28;20951;-55
2022/01/16 04:38:02;;;;;;;1.23;1.00;;;-1.40;99.90;;;;;;5034301;28;20479;-55
2022/01/16 04:40:31;;;;;;;1.90;0.90;;;-1.40;99.90;;;;;;5030861;28;21178;-54
2022/01/16 04:45:42;;;;;;;1.20;1.10;;;-1.40;99.90;;;;;;5038671;28;20532;-55
2022/01/16 04:48:09;;;;;;;1.90;1.20;;;-1.40;99.90;;;;;;5028155;28;20480;-56
2022/01/16 04:50:37;;;;;;;1.40;1.30;;;-1.40;99.90;;;;;;5032686;28;20502;-54
2022/01/16 04:53:04;;;;;;;1.30;1.20;;;-1.30;99.90;;;;;;5036788;28;20497;-56
2022/01/16 04:55:31;;;;;;;1.40;1.30;;;-1.30;99.90;;;;;;5032101;28;20475;-56
2022/01/16 04:57:58;;;;;;;0.90;0.90;;;-1.60;99.90;;;;;;5029310;28;20501;-53
2022/01/16 05:00:25;;;;;;;1.40;0.90;;;-1.50;99.90;;;;;;5035737;28;20521;-57
2022/01/16 05:02:52;;;;;;;0.63;0.63;;;-1.40;99.90;;;;;;5040548;28;20465;-55
2022/01/16 05:05:19;;;;;;;1.00;1.00;;;-1.40;99.90;;;;;;5029039;28;20992;-55
2022/01/16 05:07:47;;;;;;;0.80;0.80;;;-1.40;99.90;;;;;;5031019;28;20483;-53
2022/01/16 05:10:14;;;;;;;0.73;0.73;;;-1.40;99.90;;;;;;5036746;28;20548;-53
2022/01/16 05:12:44;;;;;;;0.80;0.80;;;-1.40;99.90;;;;;;5030994;28;20532;-55
2022/01/16 05:17:56;;;;;;;0.80;0.60;;;-1.30;99.90;;;;;;5028571;28;20437;-56
2022/01/16 05:20:23;;;;;;;0.97;0.83;;;-1.30;99.90;;;;;;5044569;28;20512;-56
2022/01/16 05:22:52;;;;;;;2.20;2.00;;;-1.60;99.90;;;;;;5032110;28;20479;-55
2022/01/16 05:25:19;;;;;;;2.40;1.20;;;-1.80;99.90;;;;;;5037285;28;21235;-55
2022/01/16 05:27:46;;;;;;;4.93;2.70;;;-1.90;99.90;;;;;;5036416;28;20476;-55
2022/01/16 05:30:13;;;;;;;4.60;2.63;;;-1.80;99.90;;;;;;5035051;28;20491;-55
2022/01/16 05:32:41;;;;;;;3.73;2.33;;;-1.80;99.90;;;;;;5033221;28;20459;-55
2022/01/16 05:35:09;;;;;;;4.73;2.30;;;-1.70;99.90;;;;;;5033208;28;20495;-56
2022/01/16 05:37:36;;;;;;;2.00;1.73;;;-1.60;99.90;;;;;;5037848;28;20479;-56
2022/01/16 05:40:06;;;;;;;1.50;1.40;;;-1.60;99.90;;;;;;5030325;28;20945;-54
2022/01/16 05:42:33;;;;;;;2.17;1.67;;;-1.70;99.90;;;;;;5031623;28;20491;-55
2022/01/16 05:45:01;;;;;;;1.90;1.80;;;-1.60;99.90;;;;;;5041337;28;20443;-55
2022/01/16 05:47:28;;;;;;;1.37;1.27;;;-1.50;99.90;;;;;;5026608;28;21024;-51
2022/01/16 05:49:55;;;;;;;1.47;1.00;;;-1.40;99.90;;;;;;5028322;28;20479;-51
2022/01/16 05:52:21;;;;;;;1.67;1.57;;;-1.30;99.90;;;;;;5041792;28;20469;-51
2022/01/16 05:54:48;;;;;;;0.70;0.70;;;-1.20;99.90;;;;;;5029920;28;20477;-51
2022/01/16 05:57:17;;;;;;;0.90;0.80;;;-1.20;99.90;;;;;;5029161;28;20482;-52
2022/01/16 05:59:44;;;;;;;1.10;1.10;;;-1.20;99.90;;;;;;5034012;28;20919;-50
2022/01/16 06:02:11;;;;;;;1.70;1.30;;;-1.20;99.90;;;;;;5033163;28;20505;-51
2022/01/16 06:04:38;;;;;;;1.63;1.20;;;-1.20;99.90;;;;;;5029376;28;20445;-51
2022/01/16 06:07:06;;;;;;;2.70;1.30;;;-1.20;99.90;;;;;;5032109;28;20969;-51
2022/01/16 06:09:33;;;;;;;1.47;1.30;;;-1.20;99.90;;;;;;5029874;28;20950;-49
2022/01/16 06:12:00;;;;;;;2.37;1.17;;;-1.30;99.90;;;;;;5028059;28;20576;-50
2022/01/16 06:14:28;;;;;;;1.20;1.10;;;-1.30;99.90;;;;;;5024047;28;20487;-52
2022/01/16 06:16:55;;;;;;;5.13;4.20;;;-1.70;99.90;;;;;;5021028;28;20486;-50
2022/01/16 06:19:22;;;;;;;4.93;4.40;;;-1.80;99.90;;;;;;5026374;28;20446;-51
2022/01/16 06:21:49;;;;;;;3.50;3.20;;;-1.80;99.90;;;;;;5025849;28;20579;-52
2022/01/16 06:24:17;;;;;;;2.17;1.50;;;-2.10;99.90;;;;;;5034694;28;20485;-52
2022/01/16 06:26:44;;;;;;;2.30;1.40;;;-2.30;99.90;;;;;;5034750;28;20499;-52
2022/01/16 06:29:11;;;;;;;1.33;1.10;;;-2.30;99.90;;;;;;5024721;28;20523;-51
2022/01/16 06:31:39;;;;;;;2.27;2.07;;;-2.20;99.90;;;;;;5034831;28;20583;-51
2022/01/16 06:34:06;;;;;;;2.43;2.23;;;-2.10;99.90;;;;;;5042075;28;20938;-51
2022/01/16 06:36:35;;;;;;;3.80;3.03;;;-1.90;99.90;;;;;;5026452;28;20458;-52
2022/01/16 06:39:03;;;;;;;3.63;3.23;;;-2.00;99.90;;;;;;5025149;28;20466;-52
2022/01/16 06:41:30;;;;;;;4.40;3.00;;;-2.00;99.90;;;;;;5026569;28;21214;-52
2022/01/16 06:43:57;;;;;;;5.70;2.17;;;-1.90;99.90;;;;;;5026920;28;20547;-53
2022/01/16 06:46:25;;;;;;;2.00;1.90;;;-2.10;99.90;;;;;;5027902;28;20451;-51
2022/01/16 06:48:53;;;;;;;1.90;1.73;;;-2.00;99.90;;;;;;5027774;28;20947;-53
2022/01/16 06:51:21;;;;;;;1.83;1.73;;;-2.20;99.90;;;;;;5027130;28;20506;-52
2022/01/16 06:53:49;;;;;;;2.17;1.97;;;-2.10;99.90;;;;;;5028913;28;20485;-53
2022/01/16 06:56:17;;;;;;;2.70;2.00;;;-1.90;99.90;;;;;;5036889;28;20496;-50
2022/01/16 06:58:44;;;;;;;2.53;2.30;;;-1.80;99.90;;;;;;5027458;28;20540;-50
2022/01/16 07:01:13;;;;;;;3.30;2.80;;;-1.70;99.90;;;;;;5026648;28;20565;-52
2022/01/16 07:03:40;;;;;;;2.93;2.73;;;-1.70;99.90;;;;;;5028028;28;20473;-52
2022/01/16 07:06:09;;;;;;;4.00;3.60;;;-1.70;99.90;;;;;;5028192;28;20482;-52
2022/01/16 07:08:36;;;;;;;5.30;4.00;;;-1.70;99.90;;;;;;5029199;28;20483;-52
2022/01/16 07:11:03;;;;;;;2.50;2.30;;;-1.60;99.90;;;;;;5031899;28;20505;-51
2022/01/16 07:13:30;;;;;;;3.30;2.20;;;-1.60;99.90;;;;;;5027450;28;20507;-51
2022/01/16 07:15:57;;;;;;;1.40;1.30;;;-1.50;99.90;;;;;;5038472;28;20481;-51
2022/01/16 07:18:25;;;;;;;2.47;2.10;;;-1.40;99.90;;;;;;5033695;28;20449;-52
2022/01/16 07:20:52;;;;;;;1.67;1.57;;;-1.40;99.90;;;;;;5033297;28;20514;-51
2022/01/16 07:23:20;;;;;;;2.60;2.40;;;-1.50;99.90;;;;;;5027431;28;20472;-51
2022/01/16 07:25:48;;;;;;;3.17;2.63;;;-1.50;99.90;;;;;;5027101;28;20465;-52
2022/01/16 07:28:15;;;;;;;4.20;2.60;;;-1.60;99.90;;;;;;5027974;28;20481;-51
2022/01/16 07:30:43;;;;;;;1.60;1.50;;;-1.70;99.90;;;;;;5030667;28;20810;-51
2022/01/16 07:33:10;;;;;;;1.70;1.60;;;-1.70;99.90;;;;;;5028530;28;20486;-51
2022/01/16 07:35:38;;;;;;;1.60;1.50;;;-1.70;99.90;;;;;;5027238;28;20478;-51
2022/01/16 07:38:05;;;;;;;2.20;2.00;;;-1.70;99.90;;;;;;5019316;28;20550;-52
2022/01/16 07:40:34;;;;;;;2.00;1.90;;;-2.00;99.90;;;;;;5031751;28;20500;-50
2022/01/16 07:43:01;;;;;;;2.70;1.93;;;-2.40;99.90;;;;;;5028337;28;20485;-52
2022/01/16 07:45:28;;;;;;;2.33;2.23;;;-2.40;99.90;;;;;;5029828;28;20541;-52
2022/01/16 07:47:55;;;;;;;2.50;2.30;;;-2.40;99.90;;;;;;5026930;28;20486;-51
2022/01/16 07:50:22;;;;;;;4.13;3.17;;;-2.30;99.90;;;;;;5026592;28;20498;-52
2022/01/16 07:52:49;;;;;;;5.87;5.27;;;-2.30;99.90;;;;;;5032821;28;20541;-51
2022/01/16 07:55:18;;;;;;;2.50;2.30;;;-2.20;99.90;;;;;;5037876;28;20490;-52
2022/01/16 07:57:46;;;;;;;6.07;5.47;;;-2.50;99.90;;;;;;5036748;28;20461;-52
2022/01/16 08:00:14;;;;;;;4.47;3.87;;;-2.40;99.90;;;;;;5028323;28;20652;-52
2022/01/16 08:02:41;;;;;;;6.00;5.47;;;-2.30;99.90;;;;;;5036181;28;20915;-52
2022/01/16 08:05:08;;;;;;;5.03;4.63;;;-2.10;99.90;;;;;;5040809;28;20476;-51
2022/01/16 08:07:36;;;;;;;6.03;5.50;;;-2.00;99.90;;;;;;5028639;28;20952;-53
2022/01/16 08:10:03;;;;;;;11.00;7.73;;;-1.90;99.90;;;;;;5031001;28;20513;-52
2022/01/16 08:12:30;;;;;;;7.43;6.83;;;-1.80;99.90;;;;;;5038493;28;20482;-50
2022/01/16 08:14:58;;;;;;;11.70;10.60;;;-1.80;99.90;;;;;;5033517;28;20469;-51
2022/01/16 08:17:25;;;;;;;9.13;8.33;;;-1.70;99.90;;;;;;5033238;28;20468;-51
2022/01/16 08:19:52;;;;;;;6.23;5.70;;;-1.70;99.90;;;;;;5043149;28;20475;-51
2022/01/16 08:22:19;;;;;;;9.30;8.40;;;-1.80;99.90;;;;;;5037049;28;20548;-51
2022/01/16 08:24:46;;;;;;;10.77;9.87;;;-1.80;99.90;;;;;;5032069;28;21294;-51
2022/01/16 08:27:15;;;;;;;7.47;6.77;;;-1.70;99.90;;;;;;5039624;28;20553;-53
2022/01/16 08:29:42;;;;;;;6.10;5.60;;;-1.70;99.90;;;;;;5038546;28;20532;-51
2022/01/16 08:32:11;;;;;;;5.67;5.17;;;-1.70;99.90;;;;;;5034962;28;20485;-51
2022/01/16 08:34:38;;;;;;;6.57;5.47;;;-1.70;99.90;;;;;;5036346;28;20482;-50
2022/01/16 08:37:05;;;;;;;5.57;5.07;;;-1.70;99.90;;;;;;5042144;28;20501;-51
2022/01/16 08:39:32;;;;;;;8.57;7.73;;;-1.70;99.90;;;;;;5038068;28;20954;-50
2022/01/16 08:41:59;;;;;;;7.10;6.40;;;-1.80;99.90;;;;;;5033313;28;20514;-52
2022/01/16 08:44:26;;;;;;;7.40;6.80;;;-1.80;99.90;;;;;;5034430;28;20487;-51
2022/01/16 08:46:53;;;;;;;8.73;7.83;;;-1.80;99.90;;;;;;5041738;28;20434;-52
2022/01/16 08:49:21;;;;;;;7.63;7.07;;;-1.80;99.90;;;;;;5026918;28;20485;-51
2022/01/16 08:51:49;;;;;;;5.80;5.40;;;-1.90;99.90;;;;;;5035018;28;20882;-48
2022/01/16 08:54:16;;;;;;;6.70;6.00;;;-2.00;99.90;;;;;;5029608;28;20505;-51
2022/01/16 08:56:43;;;;;;;5.37;4.97;;;-1.90;99.90;;;;;;5023244;28;20481;-52
2022/01/16 08:59:10;;;;;;;6.40;4.87;;;-1.90;99.90;;;;;;5023260;28;20482;-50
2022/01/16 09:01:37;;;;;;;5.20;4.70;;;-1.80;99.90;;;;;;5032976;28;20509;-52
2022/01/16 09:04:04;;;;;;;4.83;3.17;;;-1.80;99.90;;;;;;5026415;28;20887;-51
2022/01/16 09:06:33;;;;;;;15.03;13.43;;;-1.70;99.90;;;;;;5026126;28;20948;-51
2022/01/16 09:09:00;;;;;;;42.40;32.90;;;-1.70;99.90;;;;;;5026382;28;20534;-51
2022/01/16 09:11:27;;;;;;;86.60;57.23;;;-1.80;99.90;;;;;;5023927;28;21085;-51
2022/01/16 09:13:54;;;;;;;45.23;36.00;;;-1.70;99.90;;;;;;5024229;28;20452;-52
2022/01/16 09:16:21;;;;;;;19.80;16.27;;;-1.70;99.90;;;;;;5024390;28;20451;-51
2022/01/16 09:18:49;;;;;;;4.00;3.57;;;-1.70;99.90;;;;;;5023723;28;20978;-51
2022/01/16 09:21:16;;;;;;;3.33;3.03;;;-1.70;99.90;;;;;;5027032;28;20579;-51
2022/01/16 09:23:46;;;;;;;4.17;3.77;;;-1.60;99.90;;;;;;5025811;28;20450;-52
2022/01/16 09:26:13;;;;;;;2.20;2.00;;;-1.60;99.90;;;;;;5028134;28;20478;-51
2022/01/16 09:28:40;;;;;;;1.93;1.77;;;-1.60;99.90;;;;;;5028847;28;20476;-50
2022/01/16 09:31:07;;;;;;;4.60;3.00;;;-1.60;99.90;;;;;;5021601;28;20562;-52
2022/01/16 09:33:34;;;;;;;6.73;4.80;;;-1.50;99.90;;;;;;5024901;28;20493;-51
2022/01/16 09:36:02;;;;;;;6.63;5.53;;;-1.50;99.90;;;;;;5026055;28;20934;-51
2022/01/16 09:38:28;;;;;;;4.07;3.10;;;-1.40;99.90;;;;;;5024123;28;20545;-51
2022/01/16 09:40:57;;;;;;;1.40;1.30;;;-1.40;99.90;;;;;;5021786;28;20501;-51
2022/01/16 09:43:25;;;;;;;3.47;2.90;;;-1.30;99.90;;;;;;5025030;28;20844;-51
2022/01/16 09:45:53;;;;;;;2.23;2.03;;;-1.30;99.90;;;;;;5026482;28;20902;-52
2022/01/16 09:48:20;;;;;;;1.10;1.00;;;-1.20;99.90;;;;;;5022538;28;20507;-52
2022/01/16 09:50:47;;;;;;;1.10;1.10;;;-1.50;99.90;;;;;;5026348;28;20558;-52
2022/01/16 09:53:14;;;;;;;2.43;1.40;;;-1.60;99.90;;;;;;5028079;28;20481;-52
2022/01/16 09:55:41;;;;;;;1.07;0.97;;;-1.60;99.90;;;;;;5026622;28;20900;-50
2022/01/16 09:58:10;;;;;;;2.30;1.73;;;-1.50;99.90;;;;;;5025061;28;20486;-51
2022/01/16 10:00:37;;;;;;;9.03;6.53;;;-1.40;99.90;;;;;;5026265;28;20471;-51
2022/01/16 10:03:05;;;;;;;6.10;5.20;;;-1.40;99.90;;;;;;5023234;28;20519;-52
2022/01/16 10:05:34;;;;;;;5.77;4.90;;;-1.30;99.90;;;;;;5024243;28;20451;-52
2022/01/16 10:08:04;;;;;;;4.77;4.30;;;-1.20;99.90;;;;;;5025569;28;20912;-51
2022/01/16 10:10:32;;;;;;;7.90;6.50;;;-1.10;99.90;;;;;;5027843;28;20495;-52
2022/01/16 10:13:07;;;;;;;3.87;3.47;;;-1.00;99.90;;;;;;5022799;28;20469;-50
2022/01/16 10:15:36;;;;;;;7.27;5.13;;;-1.00;99.90;;;;;;5026974;28;20711;-51
2022/01/16 10:18:06;;;;;;;13.30;10.33;;;-1.00;99.90;;;;;;5025859;28;20531;-48
2022/01/16 10:20:42;;;;;;;10.53;8.53;;;-1.20;99.90;;;;;;5025747;28;20470;-52
2022/01/16 10:23:17;;;;;;;8.20;5.30;;;-1.20;99.90;;;;;;5022301;28;20517;-52
2022/01/16 10:25:47;;;;;;;7.57;5.10;;;-1.10;99.90;;;;;;5024263;28;20481;-51
2022/01/16 10:28:17;;;;;;;4.47;3.90;;;-0.90;99.90;;;;;;5023687;28;20469;-51
2022/01/16 10:30:48;;;;;;;3.70;3.37;;;-0.80;99.90;;;;;;5023342;28;20507;-52
2022/01/16 10:33:19;;;;;;;4.37;2.80;;;-0.60;99.90;;;;;;5024374;28;20489;-52
2022/01/16 10:35:47;;;;;;;3.80;2.80;;;-0.50;99.90;;;;;;5025054;28;21039;-52
2022/01/16 10:38:18;;;;;;;11.43;6.80;;;-0.50;99.90;;;;;;5022996;28;20823;-51
2022/01/16 10:40:50;;;;;;;9.50;7.77;;;-0.40;99.90;;;;;;5025216;28;21064;-52
2022/01/16 10:43:17;;;;;;;4.50;4.10;;;-0.40;99.90;;;;;;5020692;28;20817;-52
2022/01/16 10:45:47;;;;;;;6.03;4.50;;;-0.50;99.90;;;;;;5025782;28;20868;-53
2022/01/16 10:48:15;;;;;;;7.67;4.93;;;-0.50;99.90;;;;;;5020984;28;20626;-52
2022/01/16 10:50:44;;;;;;;9.33;8.27;;;-0.40;99.90;;;;;;5021701;28;20472;-52
2022/01/16 10:53:12;;;;;;;5.00;4.50;;;-0.30;99.90;;;;;;5023769;28;20446;-53
2022/01/16 10:55:44;;;;;;;6.43;5.70;;;-0.10;99.90;;;;;;5028465;28;21010;-52
2022/01/16 10:58:13;;;;;;;13.27;11.33;;;0.00;99.90;;;;;;5022113;28;21169;-51
2022/01/16 11:00:43;;;;;;;10.33;7.80;;;0.10;99.90;;;;;;5031752;28;20553;-50
2022/01/16 11:03:14;;;;;;;9.53;8.63;;;0.20;99.90;;;;;;5025208;28;20474;-52
2022/01/16 11:05:43;;;;;;;8.20;7.40;;;0.20;99.90;;;;;;5027724;28;20823;-51
2022/01/16 11:08:12;;;;;;;12.90;10.57;;;0.30;99.90;;;;;;5026294;28;20471;-52
2022/01/16 11:10:41;;;;;;;8.47;7.53;;;0.40;99.90;;;;;;5026677;28;20492;-52
2022/01/16 11:13:10;;;;;;;7.37;6.60;;;0.40;99.90;;;;;;5026241;28;20476;-53
2022/01/16 11:15:39;;;;;;;7.83;6.30;;;0.50;99.90;;;;;;5029732;28;20484;-52
2022/01/16 11:18:07;;;;;;;6.73;6.13;;;0.50;99.90;;;;;;5018400;28;20459;-53
2022/01/16 11:20:37;;;;;;;5.90;5.30;;;0.40;99.90;;;;;;5029709;28;20506;-52
2022/01/16 11:23:13;;;;;;;8.33;7.30;;;0.50;99.90;;;;;;5028240;28;20476;-50
2022/01/16 11:25:41;;;;;;;8.67;7.17;;;0.60;99.90;;;;;;5026801;28;20470;-52
2022/01/16 11:28:11;;;;;;;9.33;7.17;;;0.60;99.90;;;;;;5025564;28;20479;-52
2022/01/16 11:30:41;;;;;;;7.60;6.80;;;0.70;99.90;;;;;;5026543;28;20474;-51
2022/01/16 11:33:09;;;;;;;7.10;6.50;;;0.60;99.90;;;;;;5028046;28;20486;-51
2022/01/16 11:35:43;;;;;;;8.23;7.50;;;0.60;99.90;;;;;;5027632;28;20477;-52
2022/01/16 11:38:11;;;;;;;8.80;7.90;;;0.70;99.90;;;;;;5028490;28;20913;-52
2022/01/16 11:40:45;;;;;;;7.07;6.40;;;0.60;99.90;;;;;;5028074;28;20508;-50
2022/01/16 11:43:20;;;;;;;8.90;7.27;;;0.70;99.90;;;;;;5027880;28;20480;-52
2022/01/16 11:45:56;;;;;;;10.80;9.80;;;0.80;99.90;;;;;;5029083;28;20440;-51
2022/01/16 11:48:49;;;;;;;9.10;8.20;;;0.90;99.90;;;;;;5025803;28;20476;-50
2022/01/16 11:51:52;;;;;;;8.90;6.67;;;1.00;99.90;;;;;;5027241;28;20483;-51
2022/01/16 11:54:27;;;;;;;7.50;6.80;;;0.90;99.90;;;;;;5027308;28;20460;-52
2022/01/16 11:57:00;;;;;;;9.20;8.17;;;0.70;99.90;;;;;;5026373;28;20483;-52
2022/01/16 11:59:29;;;;;;;8.97;8.17;;;0.80;99.90;;;;;;5031723;28;20469;-52
2022/01/16 12:01:58;;;;;;;12.97;10.27;;;0.80;99.90;;;;;;5030616;28;20457;-51
2022/01/16 12:04:54;;;;;;;11.83;8.90;;;1.00;99.90;;;;;;5031299;28;20488;-52
2022/01/16 12:07:45;;;;;;;9.30;7.90;;;1.00;99.90;;;;;;5030382;28;20454;-53
2022/01/16 12:10:13;;;;;;;9.03;7.40;;;1.10;99.90;;;;;;5029887;28;20458;-52
2022/01/16 12:12:40;;;;;;;8.40;7.60;;;1.20;99.90;;;;;;5025980;28;20477;-51
2022/01/16 12:15:09;;;;;;;7.33;6.60;;;1.20;99.90;;;;;;5026133;28;20479;-51
2022/01/16 12:17:45;;;;;;;6.60;6.00;;;1.20;99.90;;;;;;5026526;28;20484;-52
2022/01/16 12:20:26;;;;;;;7.13;6.50;;;1.20;99.90;;;;;;5028572;28;20465;-53
2022/01/16 12:22:55;;;;;;;10.50;8.50;;;1.30;99.90;;;;;;5027763;28;20481;-52
2022/01/16 12:25:25;;;;;;;9.33;8.30;;;1.30;99.90;;;;;;5026137;28;20449;-52
2022/01/16 12:27:54;;;;;;;8.47;6.37;;;1.30;99.90;;;;;;5025877;28;20531;-51
2022/01/16 12:30:28;;;;;;;7.70;6.40;;;1.40;99.90;;;;;;5026549;28;20508;-49
2022/01/16 12:32:58;;;;;;;8.53;5.93;;;1.40;99.90;;;;;;5058010;22;20496;-84
2022/01/16 12:36:13;;;;;;;5.33;4.83;;;1.40;99.90;;;;;;5051723;28;20503;-84
2022/01/16 12:39:04;;;;;;;6.53;5.87;;;1.50;99.90;;;;;;5047466;28;20601;-84
2022/01/16 12:41:36;;;;;;;6.37;5.77;;;1.50;99.90;;;;;;5043755;28;20566;-84
2022/01/16 12:44:06;;;;;;;4.93;4.50;;;1.60;99.90;;;;;;5052945;22;20492;-57
2022/01/16 12:46:37;;;;;;;7.70;4.93;;;1.60;99.90;;;;;;5057102;28;20538;-57
2022/01/16 12:49:07;;;;;;;5.97;5.37;;;1.60;99.90;;;;;;5054999;28;20775;-57
2022/01/16 12:51:35;;;;;;;6.23;5.60;;;1.70;99.90;;;;;;5050013;28;20465;-56
2022/01/16 12:54:07;;;;;;;8.50;5.07;;;1.70;99.90;;;;;;5047821;28;20490;-57
2022/01/16 12:56:37;;;;;;;6.60;5.13;;;1.70;99.90;;;;;;5050263;28;20475;-57
2022/01/16 12:59:14;;;;;;;6.23;5.60;;;1.70;99.90;;;;;;5061671;28;20432;-57
2022/01/16 13:01:46;;;;;;;5.47;5.00;;;1.80;99.90;;;;;;5050597;28;20513;-57
2022/01/16 13:04:26;;;;;;;6.13;5.53;;;1.90;99.90;;;;;;5054649;28;20570;-57
2022/01/16 13:06:53;;;;;;;7.03;5.30;;;1.90;99.90;;;;;;5054194;28;20460;-57
2022/01/16 13:09:22;;;;;;;6.13;5.50;;;1.90;99.90;;;;;;5059702;28;21026;-57
2022/01/16 13:11:52;;;;;;;5.67;4.83;;;1.90;99.90;;;;;;5050623;28;20471;-57
2022/01/16 13:14:22;;;;;;;6.37;5.77;;;1.90;99.90;;;;;;5054074;28;20481;-57
2022/01/16 13:16:52;;;;;;;6.93;5.67;;;1.90;99.90;;;;;;5057125;28;21980;-56
2022/01/16 13:19:21;;;;;;;5.67;5.17;;;1.90;99.90;;;;;;5053618;28;21157;-56
2022/01/16 13:22:02;;;;;;;7.27;6.10;;;2.00;99.90;;;;;;5052924;28;20453;-57
2022/01/16 13:24:34;;;;;;;5.37;4.87;;;2.00;99.90;;;;;;5056130;28;20491;-57
2022/01/16 13:27:02;;;;;;;8.37;6.60;;;2.00;99.90;;;;;;5059046;28;20980;-56
2022/01/16 13:29:30;;;;;;;6.67;6.03;;;2.00;99.90;;;;;;5051048;28;21090;-57
2022/01/16 13:31:57;;;;;;;7.30;6.40;;;1.90;99.90;;;;;;5054909;28;20805;-58
2022/01/16 13:34:46;;;;;;;8.47;6.13;;;1.90;99.90;;;;;;5059595;28;20491;-57
2022/01/16 13:37:16;;;;;;;6.70;5.33;;;1.90;99.90;;;;;;5054036;28;20445;-57
2022/01/16 13:39:47;;;;;;;20.30;6.97;;;1.90;99.90;;;;;;5050573;28;20857;-57